sensor_id;sensor_type;location;lat;lon;timestamp;P1;durP1;ratioP1;P2;durP2;ratioP2
22814;SDS011;11574;51.058;13.712;2023-06-10T00:01:31;9.47;;;6.87;;
22814;SDS011;11574;51.058;13.712;2023-06-10T00:06:35;6.90;;;5.97;;
22814;SDS011;11574;51.058;13.712;2023-06-10T00:11:37;10.40;;;7.37;;
22814;SDS011;11574;51.058;13.712;2023-06-10T00:16:40;7.87;;;7.07;;
22814;SDS011;11574;51.058;13.712;2023-06-10T00:21:46;9.03;;;6.00;;
22814;SDS011;11574;51.058;13.712;2023-06-10T00:26:49;10.10;;;6.17;;
22814;SDS011;11574;51.058;13.712;2023-06-10T00:31:51;8.17;;;6.43;;
22814;SDS011;11574;51.058;13.712;2023-06-10T00:36:58;8.60;;;6.17;;
22814;SDS011;11574;51.058;13.712;2023-06-10T00:42:01;11.80;;;7.13;;
22814;SDS011;11574;51.058;13.712;2023-06-10T00:47:07;8.70;;;5.90;;
22814;SDS011;11574;51.058;13.712;2023-06-10T00:52:11;7.87;;;6.00;;
22814;SDS011;11574;51.058;13.712;2023-06-10T00:57:13;8.27;;;6.73;;
22814;SDS011;11574;51.058;13.712;2023-06-10T01:02:15;7.77;;;6.73;;
22814;SDS011;11574;51.058;13.712;2023-06-10T01:07:21;9.10;;;6.17;;
22814;SDS011;11574;51.058;13.712;2023-06-10T01:12:28;7.40;;;5.47;;
22814;SDS011;11574;51.058;13.712;2023-06-10T01:17:30;6.30;;;4.83;;
22814;SDS011;11574;51.058;13.712;2023-06-10T01:22:34;8.63;;;5.07;;
22814;SDS011;11574;51.058;13.712;2023-06-10T01:27:36;12.63;;;6.20;;
22814;SDS011;11574;51.058;13.712;2023-06-10T01:32:40;12.67;;;7.53;;
22814;SDS011;11574;51.058;13.712;2023-06-10T01:37:46;7.00;;;5.53;;
22814;SDS011;11574;51.058;13.712;2023-06-10T01:42:50;9.30;;;6.87;;
22814;SDS011;11574;51.058;13.712;2023-06-10T01:47:53;7.40;;;5.60;;
22814;SDS011;11574;51.058;13.712;2023-06-10T01:52:57;8.40;;;6.57;;
22814;SDS011;11574;51.058;13.712;2023-06-10T01:58:00;8.60;;;7.40;;
22814;SDS011;11574;51.058;13.712;2023-06-10T02:03:02;7.47;;;6.43;;
22814;SDS011;11574;51.058;13.712;2023-06-10T02:08:06;9.37;;;7.00;;
22814;SDS011;11574;51.058;13.712;2023-06-10T02:13:08;12.63;;;6.03;;
22814;SDS011;11574;51.058;13.712;2023-06-10T02:18:11;8.77;;;5.97;;
22814;SDS011;11574;51.058;13.712;2023-06-10T02:23:17;9.73;;;6.30;;
22814;SDS011;11574;51.058;13.712;2023-06-10T02:28:20;11.63;;;6.73;;
22814;SDS011;11574;51.058;13.712;2023-06-10T02:33:22;8.40;;;6.13;;
22814;SDS011;11574;51.058;13.712;2023-06-10T02:38:26;8.10;;;5.80;;
22814;SDS011;11574;51.058;13.712;2023-06-10T02:43:28;8.13;;;5.60;;
22814;SDS011;11574;51.058;13.712;2023-06-10T02:48:30;9.23;;;5.97;;
22814;SDS011;11574;51.058;13.712;2023-06-10T02:53:34;8.83;;;5.93;;
22814;SDS011;11574;51.058;13.712;2023-06-10T02:58:36;6.70;;;6.00;;
22814;SDS011;11574;51.058;13.712;2023-06-10T03:03:38;7.87;;;6.60;;
22814;SDS011;11574;51.058;13.712;2023-06-10T03:08:43;10.33;;;7.30;;
22814;SDS011;11574;51.058;13.712;2023-06-10T03:13:46;8.63;;;6.40;;
22814;SDS011;11574;51.058;13.712;2023-06-10T03:18:48;8.50;;;5.97;;
22814;SDS011;11574;51.058;13.712;2023-06-10T03:23:52;6.67;;;5.77;;
22814;SDS011;11574;51.058;13.712;2023-06-10T03:28:55;8.77;;;6.73;;
22814;SDS011;11574;51.058;13.712;2023-06-10T03:33:57;7.77;;;6.10;;
22814;SDS011;11574;51.058;13.712;2023-06-10T03:39:01;7.97;;;6.33;;
22814;SDS011;11574;51.058;13.712;2023-06-10T03:44:03;10.37;;;6.50;;
22814;SDS011;11574;51.058;13.712;2023-06-10T03:49:05;7.27;;;5.87;;
22814;SDS011;11574;51.058;13.712;2023-06-10T03:54:09;8.60;;;6.10;;
22814;SDS011;11574;51.058;13.712;2023-06-10T03:59:11;8.63;;;7.07;;
22814;SDS011;11574;51.058;13.712;2023-06-10T04:04:13;9.00;;;6.97;;
22814;SDS011;11574;51.058;13.712;2023-06-10T04:09:19;8.07;;;5.85;;
22814;SDS011;11574;51.058;13.712;2023-06-10T04:14:21;8.05;;;5.80;;
22814;SDS011;11574;51.058;13.712;2023-06-10T04:19:23;9.00;;;6.35;;
22814;SDS011;11574;51.058;13.712;2023-06-10T04:24:27;8.27;;;5.93;;
22814;SDS011;11574;51.058;13.712;2023-06-10T04:29:29;9.70;;;6.95;;
22814;SDS011;11574;51.058;13.712;2023-06-10T04:34:31;11.00;;;6.85;;
22814;SDS011;11574;51.058;13.712;2023-06-10T04:39:35;9.80;;;6.55;;
22814;SDS011;11574;51.058;13.712;2023-06-10T04:44:37;9.23;;;6.60;;
22814;SDS011;11574;51.058;13.712;2023-06-10T04:49:40;10.35;;;7.22;;
22814;SDS011;11574;51.058;13.712;2023-06-10T04:54:44;12.13;;;6.45;;
22814;SDS011;11574;51.058;13.712;2023-06-10T04:59:46;7.47;;;6.28;;
22814;SDS011;11574;51.058;13.712;2023-06-10T05:04:48;9.30;;;5.95;;
22814;SDS011;11574;51.058;13.712;2023-06-10T05:09:52;10.23;;;6.43;;
22814;SDS011;11574;51.058;13.712;2023-06-10T05:14:54;11.15;;;6.13;;
22814;SDS011;11574;51.058;13.712;2023-06-10T05:19:57;6.90;;;5.65;;
22814;SDS011;11574;51.058;13.712;2023-06-10T05:25:01;9.23;;;6.10;;
22814;SDS011;11574;51.058;13.712;2023-06-10T05:30:03;10.60;;;5.75;;
22814;SDS011;11574;51.058;13.712;2023-06-10T05:35:07;13.40;;;6.40;;
22814;SDS011;11574;51.058;13.712;2023-06-10T05:40:14;9.75;;;7.40;;
22814;SDS011;11574;51.058;13.712;2023-06-10T05:45:16;9.05;;;5.60;;
22814;SDS011;11574;51.058;13.712;2023-06-10T05:50:19;7.13;;;5.57;;
22814;SDS011;11574;51.058;13.712;2023-06-10T05:55:24;10.95;;;5.65;;
22814;SDS011;11574;51.058;13.712;2023-06-10T06:00:26;8.15;;;5.55;;
22814;SDS011;11574;51.058;13.712;2023-06-10T06:05:29;7.10;;;5.13;;
22814;SDS011;11574;51.058;13.712;2023-06-10T06:10:36;7.15;;;5.03;;
22814;SDS011;11574;51.058;13.712;2023-06-10T06:15:41;5.45;;;4.88;;
22814;SDS011;11574;51.058;13.712;2023-06-10T06:20:45;6.50;;;5.25;;
22814;SDS011;11574;51.058;13.712;2023-06-10T06:25:52;5.60;;;4.78;;
22814;SDS011;11574;51.058;13.712;2023-06-10T06:30:54;4.80;;;4.40;;
22814;SDS011;11574;51.058;13.712;2023-06-10T06:35:57;5.97;;;4.78;;
22814;SDS011;11574;51.058;13.712;2023-06-10T06:41:02;6.22;;;3.67;;
22814;SDS011;11574;51.058;13.712;2023-06-10T06:46:06;4.10;;;3.55;;
22814;SDS011;11574;51.058;13.712;2023-06-10T06:51:11;5.13;;;4.20;;
22814;SDS011;11574;51.058;13.712;2023-06-10T06:56:14;5.15;;;4.35;;
22814;SDS011;11574;51.058;13.712;2023-06-10T07:01:16;6.22;;;4.78;;
22814;SDS011;11574;51.058;13.712;2023-06-10T07:06:19;6.72;;;4.65;;
22814;SDS011;11574;51.058;13.712;2023-06-10T07:11:22;8.63;;;5.13;;
22814;SDS011;11574;51.058;13.712;2023-06-10T07:16:26;8.25;;;5.28;;
22814;SDS011;11574;51.058;13.712;2023-06-10T07:21:29;5.10;;;4.35;;
22814;SDS011;11574;51.058;13.712;2023-06-10T07:26:34;6.70;;;5.07;;
22814;SDS011;11574;51.058;13.712;2023-06-10T07:31:36;6.22;;;4.97;;
22814;SDS011;11574;51.058;13.712;2023-06-10T07:36:38;6.97;;;5.22;;
22814;SDS011;11574;51.058;13.712;2023-06-10T07:41:42;10.45;;;5.90;;
22814;SDS011;11574;51.058;13.712;2023-06-10T07:46:44;9.88;;;5.40;;
22814;SDS011;11574;51.058;13.712;2023-06-10T07:51:46;5.15;;;4.45;;
22814;SDS011;11574;51.058;13.712;2023-06-10T07:56:52;8.30;;;4.95;;
22814;SDS011;11574;51.058;13.712;2023-06-10T08:01:54;5.30;;;4.45;;
22814;SDS011;11574;51.058;13.712;2023-06-10T08:06:57;8.38;;;4.70;;
22814;SDS011;11574;51.058;13.712;2023-06-10T08:12:00;7.63;;;4.93;;
22814;SDS011;11574;51.058;13.712;2023-06-10T08:17:03;7.43;;;4.75;;
22814;SDS011;11574;51.058;13.712;2023-06-10T08:22:06;6.30;;;4.60;;
22814;SDS011;11574;51.058;13.712;2023-06-10T08:27:10;6.15;;;4.60;;
22814;SDS011;11574;51.058;13.712;2023-06-10T08:32:12;8.10;;;4.85;;
22814;SDS011;11574;51.058;13.712;2023-06-10T08:37:15;6.38;;;4.80;;
22814;SDS011;11574;51.058;13.712;2023-06-10T08:42:19;6.65;;;4.93;;
22814;SDS011;11574;51.058;13.712;2023-06-10T08:47:26;6.85;;;5.10;;
22814;SDS011;11574;51.058;13.712;2023-06-10T08:52:36;9.63;;;5.07;;
22814;SDS011;11574;51.058;13.712;2023-06-10T08:57:41;6.93;;;5.00;;
22814;SDS011;11574;51.058;13.712;2023-06-10T09:02:44;9.07;;;5.22;;
22814;SDS011;11574;51.058;13.712;2023-06-10T09:07:47;6.13;;;4.60;;
22814;SDS011;11574;51.058;13.712;2023-06-10T09:12:51;6.25;;;5.00;;
22814;SDS011;11574;51.058;13.712;2023-06-10T09:17:53;6.20;;;4.00;;
22814;SDS011;11574;51.058;13.712;2023-06-10T09:22:55;6.72;;;4.72;;
22814;SDS011;11574;51.058;13.712;2023-06-10T09:27:59;8.20;;;5.15;;
22814;SDS011;11574;51.058;13.712;2023-06-10T09:33:02;7.95;;;5.00;;
22814;SDS011;11574;51.058;13.712;2023-06-10T09:38:05;6.82;;;4.30;;
22814;SDS011;11574;51.058;13.712;2023-06-10T09:43:08;6.95;;;4.45;;
22814;SDS011;11574;51.058;13.712;2023-06-10T09:48:13;7.65;;;4.90;;
22814;SDS011;11574;51.058;13.712;2023-06-10T09:53:16;5.63;;;4.30;;
22814;SDS011;11574;51.058;13.712;2023-06-10T09:58:22;6.00;;;4.40;;
22814;SDS011;11574;51.058;13.712;2023-06-10T10:03:42;5.50;;;4.30;;
22814;SDS011;11574;51.058;13.712;2023-06-10T10:08:46;6.55;;;3.97;;
22814;SDS011;11574;51.058;13.712;2023-06-10T10:13:50;5.25;;;4.40;;
22814;SDS011;11574;51.058;13.712;2023-06-10T10:18:54;5.82;;;4.30;;
22814;SDS011;11574;51.058;13.712;2023-06-10T10:23:58;6.70;;;4.60;;
22814;SDS011;11574;51.058;13.712;2023-06-10T10:29:08;6.22;;;4.50;;
22814;SDS011;11574;51.058;13.712;2023-06-10T10:34:13;5.55;;;4.57;;
22814;SDS011;11574;51.058;13.712;2023-06-10T10:39:17;6.80;;;4.30;;
22814;SDS011;11574;51.058;13.712;2023-06-10T10:44:23;7.88;;;4.63;;
22814;SDS011;11574;51.058;13.712;2023-06-10T10:49:25;7.95;;;5.43;;
22814;SDS011;11574;51.058;13.712;2023-06-10T10:54:29;7.03;;;5.35;;
22814;SDS011;11574;51.058;13.712;2023-06-10T10:59:44;7.85;;;5.00;;
22814;SDS011;11574;51.058;13.712;2023-06-10T11:04:46;8.07;;;4.95;;
22814;SDS011;11574;51.058;13.712;2023-06-10T11:09:57;8.00;;;4.60;;
22814;SDS011;11574;51.058;13.712;2023-06-10T11:15:01;6.28;;;4.28;;
22814;SDS011;11574;51.058;13.712;2023-06-10T11:20:03;6.45;;;4.88;;
22814;SDS011;11574;51.058;13.712;2023-06-10T11:25:13;6.85;;;4.63;;
22814;SDS011;11574;51.058;13.712;2023-06-10T11:30:20;5.85;;;4.63;;
22814;SDS011;11574;51.058;13.712;2023-06-10T11:35:23;6.65;;;5.38;;
22814;SDS011;11574;51.058;13.712;2023-06-10T11:40:27;4.90;;;4.45;;
22814;SDS011;11574;51.058;13.712;2023-06-10T11:45:32;5.75;;;4.80;;
22814;SDS011;11574;51.058;13.712;2023-06-10T11:50:35;7.47;;;4.68;;
22814;SDS011;11574;51.058;13.712;2023-06-10T11:55:41;5.95;;;4.90;;
22814;SDS011;11574;51.058;13.712;2023-06-10T12:00:46;8.38;;;5.07;;
22814;SDS011;11574;51.058;13.712;2023-06-10T12:05:58;6.95;;;4.80;;
22814;SDS011;11574;51.058;13.712;2023-06-10T12:11:00;11.07;;;4.55;;
22814;SDS011;11574;51.058;13.712;2023-06-10T12:16:07;6.25;;;4.30;;
22814;SDS011;11574;51.058;13.712;2023-06-10T12:21:17;7.97;;;4.13;;
22814;SDS011;11574;51.058;13.712;2023-06-10T12:26:20;6.40;;;4.50;;
22814;SDS011;11574;51.058;13.712;2023-06-10T12:36:54;7.53;;;4.03;;
22814;SDS011;11574;51.058;13.712;2023-06-10T12:41:57;7.18;;;4.30;;
22814;SDS011;11574;51.058;13.712;2023-06-10T12:46:59;6.07;;;4.45;;
22814;SDS011;11574;51.058;13.712;2023-06-10T12:52:03;6.95;;;4.70;;
22814;SDS011;11574;51.058;13.712;2023-06-10T12:57:06;6.68;;;4.78;;
22814;SDS011;11574;51.058;13.712;2023-06-10T13:02:08;8.10;;;4.30;;
22814;SDS011;11574;51.058;13.712;2023-06-10T13:07:12;5.30;;;4.13;;
22814;SDS011;11574;51.058;13.712;2023-06-10T13:12:14;7.78;;;4.68;;
22814;SDS011;11574;51.058;13.712;2023-06-10T13:17:19;10.63;;;4.45;;
22814;SDS011;11574;51.058;13.712;2023-06-10T13:22:23;10.25;;;4.18;;
22814;SDS011;11574;51.058;13.712;2023-06-10T13:27:26;7.88;;;4.25;;
22814;SDS011;11574;51.058;13.712;2023-06-10T13:32:28;7.82;;;4.43;;
22814;SDS011;11574;51.058;13.712;2023-06-10T13:37:32;5.30;;;4.10;;
22814;SDS011;11574;51.058;13.712;2023-06-10T13:42:35;6.72;;;4.32;;
22814;SDS011;11574;51.058;13.712;2023-06-10T13:47:37;5.60;;;3.85;;
22814;SDS011;11574;51.058;13.712;2023-06-10T13:52:40;4.55;;;3.90;;
22814;SDS011;11574;51.058;13.712;2023-06-10T13:57:43;6.28;;;3.60;;
22814;SDS011;11574;51.058;13.712;2023-06-10T14:02:45;7.75;;;3.13;;
22814;SDS011;11574;51.058;13.712;2023-06-10T14:07:49;5.93;;;3.50;;
22814;SDS011;11574;51.058;13.712;2023-06-10T14:12:51;5.53;;;3.47;;
22814;SDS011;11574;51.058;13.712;2023-06-10T14:17:53;8.23;;;3.33;;
22814;SDS011;11574;51.058;13.712;2023-06-10T14:22:57;3.95;;;3.22;;
22814;SDS011;11574;51.058;13.712;2023-06-10T14:27:59;6.25;;;3.75;;
22814;SDS011;11574;51.058;13.712;2023-06-10T14:33:01;4.60;;;3.67;;
22814;SDS011;11574;51.058;13.712;2023-06-10T14:38:05;5.30;;;3.63;;
22814;SDS011;11574;51.058;13.712;2023-06-10T14:43:10;7.88;;;3.60;;
22814;SDS011;11574;51.058;13.712;2023-06-10T14:48:20;5.93;;;3.50;;
22814;SDS011;11574;51.058;13.712;2023-06-10T14:53:24;9.13;;;3.88;;
22814;SDS011;11574;51.058;13.712;2023-06-10T14:58:26;6.13;;;3.83;;
22814;SDS011;11574;51.058;13.712;2023-06-10T15:03:36;6.65;;;3.60;;
22814;SDS011;11574;51.058;13.712;2023-06-10T15:08:40;6.35;;;4.38;;
22814;SDS011;11574;51.058;13.712;2023-06-10T15:13:42;6.28;;;3.83;;
22814;SDS011;11574;51.058;13.712;2023-06-10T15:18:44;6.35;;;4.30;;
22814;SDS011;11574;51.058;13.712;2023-06-10T15:23:48;4.43;;;3.97;;
22814;SDS011;11574;51.058;13.712;2023-06-10T15:28:51;6.45;;;5.05;;
22814;SDS011;11574;51.058;13.712;2023-06-10T15:33:53;4.90;;;3.97;;
22814;SDS011;11574;51.058;13.712;2023-06-10T15:38:57;7.53;;;4.47;;
22814;SDS011;11574;51.058;13.712;2023-06-10T15:44:07;4.80;;;4.28;;
22814;SDS011;11574;51.058;13.712;2023-06-10T15:49:09;6.38;;;4.30;;
22814;SDS011;11574;51.058;13.712;2023-06-10T15:54:14;8.80;;;4.30;;
22814;SDS011;11574;51.058;13.712;2023-06-10T15:59:19;7.90;;;4.60;;
22814;SDS011;11574;51.058;13.712;2023-06-10T16:04:25;6.43;;;4.20;;
22814;SDS011;11574;51.058;13.712;2023-06-10T16:09:29;5.68;;;4.60;;
22814;SDS011;11574;51.058;13.712;2023-06-10T16:14:31;6.07;;;4.45;;
22814;SDS011;11574;51.058;13.712;2023-06-10T16:19:33;9.18;;;6.07;;
22814;SDS011;11574;51.058;13.712;2023-06-10T16:24:37;5.03;;;4.53;;
22814;SDS011;11574;51.058;13.712;2023-06-10T16:29:39;8.80;;;4.60;;
22814;SDS011;11574;51.058;13.712;2023-06-10T16:34:41;9.70;;;4.85;;
22814;SDS011;11574;51.058;13.712;2023-06-10T16:39:45;5.80;;;4.70;;
22814;SDS011;11574;51.058;13.712;2023-06-10T16:44:48;5.50;;;4.15;;
22814;SDS011;11574;51.058;13.712;2023-06-10T16:49:50;5.90;;;4.63;;
22814;SDS011;11574;51.058;13.712;2023-06-10T16:54:54;6.70;;;4.35;;
22814;SDS011;11574;51.058;13.712;2023-06-10T16:59:56;8.35;;;4.95;;
22814;SDS011;11574;51.058;13.712;2023-06-10T17:04:59;7.50;;;4.80;;
22814;SDS011;11574;51.058;13.712;2023-06-10T17:10:06;7.10;;;4.43;;
22814;SDS011;11574;51.058;13.712;2023-06-10T17:15:09;6.30;;;4.70;;
22814;SDS011;11574;51.058;13.712;2023-06-10T17:20:11;7.95;;;4.63;;
22814;SDS011;11574;51.058;13.712;2023-06-10T17:25:15;8.98;;;4.70;;
22814;SDS011;11574;51.058;13.712;2023-06-10T17:30:17;6.90;;;4.75;;
22814;SDS011;11574;51.058;13.712;2023-06-10T17:35:20;5.45;;;4.25;;
22814;SDS011;11574;51.058;13.712;2023-06-10T17:40:24;8.32;;;4.40;;
22814;SDS011;11574;51.058;13.712;2023-06-10T17:45:29;10.35;;;4.85;;
22814;SDS011;11574;51.058;13.712;2023-06-10T17:50:31;6.95;;;5.38;;
22814;SDS011;11574;51.058;13.712;2023-06-10T17:55:41;7.35;;;4.65;;
22814;SDS011;11574;51.058;13.712;2023-06-10T18:00:43;5.68;;;4.30;;
22814;SDS011;11574;51.058;13.712;2023-06-10T18:05:45;7.07;;;4.50;;
22814;SDS011;11574;51.058;13.712;2023-06-10T18:10:49;11.40;;;4.57;;
22814;SDS011;11574;51.058;13.712;2023-06-10T18:15:51;6.85;;;4.40;;
22814;SDS011;11574;51.058;13.712;2023-06-10T18:20:53;8.98;;;5.22;;
22814;SDS011;11574;51.058;13.712;2023-06-10T18:25:57;9.48;;;5.05;;
22814;SDS011;11574;51.058;13.712;2023-06-10T18:31:00;8.55;;;5.75;;
22814;SDS011;11574;51.058;13.712;2023-06-10T18:36:06;9.95;;;6.07;;
22814;SDS011;11574;51.058;13.712;2023-06-10T18:41:11;10.43;;;6.38;;
22814;SDS011;11574;51.058;13.712;2023-06-10T18:46:18;10.80;;;7.43;;
22814;SDS011;11574;51.058;13.712;2023-06-10T18:51:22;9.88;;;7.05;;
22814;SDS011;11574;51.058;13.712;2023-06-10T18:56:26;10.73;;;7.95;;
22814;SDS011;11574;51.058;13.712;2023-06-10T19:01:28;9.45;;;6.50;;
22814;SDS011;11574;51.058;13.712;2023-06-10T19:06:33;10.45;;;7.30;;
22814;SDS011;11574;51.058;13.712;2023-06-10T19:11:40;11.20;;;6.50;;
22814;SDS011;11574;51.058;13.712;2023-06-10T19:16:42;10.65;;;6.55;;
22814;SDS011;11574;51.058;13.712;2023-06-10T19:21:45;11.45;;;6.63;;
22814;SDS011;11574;51.058;13.712;2023-06-10T19:26:48;9.25;;;6.15;;
22814;SDS011;11574;51.058;13.712;2023-06-10T19:31:51;9.98;;;5.40;;
22814;SDS011;11574;51.058;13.712;2023-06-10T19:36:54;10.20;;;6.88;;
22814;SDS011;11574;51.058;13.712;2023-06-10T19:41:58;8.02;;;6.15;;
22814;SDS011;11574;51.058;13.712;2023-06-10T19:47:01;8.18;;;6.15;;
22814;SDS011;11574;51.058;13.712;2023-06-10T19:52:03;8.00;;;6.13;;
22814;SDS011;11574;51.058;13.712;2023-06-10T19:57:07;9.00;;;5.83;;
22814;SDS011;11574;51.058;13.712;2023-06-10T20:02:10;9.70;;;5.97;;
22814;SDS011;11574;51.058;13.712;2023-06-10T20:07:13;9.82;;;5.85;;
22814;SDS011;11574;51.058;13.712;2023-06-10T20:12:17;7.85;;;5.90;;
22814;SDS011;11574;51.058;13.712;2023-06-10T20:17:20;10.25;;;5.75;;
22814;SDS011;11574;51.058;13.712;2023-06-10T20:22:22;8.50;;;5.90;;
22814;SDS011;11574;51.058;13.712;2023-06-10T20:27:26;9.60;;;6.50;;
22814;SDS011;11574;51.058;13.712;2023-06-10T20:32:28;9.27;;;6.20;;
22814;SDS011;11574;51.058;13.712;2023-06-10T20:37:30;10.47;;;6.57;;
22814;SDS011;11574;51.058;13.712;2023-06-10T20:42:34;9.87;;;6.03;;
22814;SDS011;11574;51.058;13.712;2023-06-10T20:47:36;8.87;;;5.43;;
22814;SDS011;11574;51.058;13.712;2023-06-10T20:52:39;9.07;;;6.30;;
22814;SDS011;11574;51.058;13.712;2023-06-10T20:57:42;13.50;;;6.70;;
22814;SDS011;11574;51.058;13.712;2023-06-10T21:02:44;12.33;;;8.50;;
22814;SDS011;11574;51.058;13.712;2023-06-10T21:07:46;10.33;;;7.33;;
22814;SDS011;11574;51.058;13.712;2023-06-10T21:12:50;13.93;;;7.00;;
22814;SDS011;11574;51.058;13.712;2023-06-10T21:17:52;8.70;;;5.97;;
22814;SDS011;11574;51.058;13.712;2023-06-10T21:22:55;12.40;;;6.40;;
22814;SDS011;11574;51.058;13.712;2023-06-10T21:27:58;9.03;;;6.37;;
22814;SDS011;11574;51.058;13.712;2023-06-10T21:33:00;8.83;;;5.83;;
22814;SDS011;11574;51.058;13.712;2023-06-10T21:38:03;9.83;;;7.07;;
22814;SDS011;11574;51.058;13.712;2023-06-10T21:43:06;12.37;;;7.37;;
22814;SDS011;11574;51.058;13.712;2023-06-10T21:48:08;11.20;;;7.23;;
22814;SDS011;11574;51.058;13.712;2023-06-10T21:53:11;16.80;;;7.13;;
22814;SDS011;11574;51.058;13.712;2023-06-10T21:58:15;8.80;;;6.47;;
22814;SDS011;11574;51.058;13.712;2023-06-10T22:03:18;9.80;;;6.67;;
22814;SDS011;11574;51.058;13.712;2023-06-10T22:08:22;7.90;;;5.97;;
22814;SDS011;11574;51.058;13.712;2023-06-10T22:13:26;9.33;;;6.27;;
22814;SDS011;11574;51.058;13.712;2023-06-10T22:18:28;10.53;;;6.90;;
22814;SDS011;11574;51.058;13.712;2023-06-10T22:23:31;13.43;;;6.70;;
22814;SDS011;11574;51.058;13.712;2023-06-10T22:28:34;10.00;;;6.40;;
22814;SDS011;11574;51.058;13.712;2023-06-10T22:33:37;12.67;;;6.47;;
22814;SDS011;11574;51.058;13.712;2023-06-10T22:38:39;11.47;;;6.73;;
22814;SDS011;11574;51.058;13.712;2023-06-10T22:43:42;11.23;;;6.27;;
22814;SDS011;11574;51.058;13.712;2023-06-10T22:48:46;10.67;;;6.23;;
22814;SDS011;11574;51.058;13.712;2023-06-10T22:53:48;9.53;;;7.87;;
22814;SDS011;11574;51.058;13.712;2023-06-10T22:58:51;10.70;;;7.47;;
22814;SDS011;11574;51.058;13.712;2023-06-10T23:03:54;11.60;;;6.80;;
22814;SDS011;11574;51.058;13.712;2023-06-10T23:08:56;10.13;;;7.07;;
22814;SDS011;11574;51.058;13.712;2023-06-10T23:14:00;9.17;;;6.13;;
22814;SDS011;11574;51.058;13.712;2023-06-10T23:19:02;12.37;;;7.00;;
22814;SDS011;11574;51.058;13.712;2023-06-10T23:24:04;13.73;;;6.50;;
22814;SDS011;11574;51.058;13.712;2023-06-10T23:29:08;13.33;;;6.43;;
22814;SDS011;11574;51.058;13.712;2023-06-10T23:34:10;10.20;;;7.30;;
22814;SDS011;11574;51.058;13.712;2023-06-10T23:39:12;12.53;;;7.20;;
22814;SDS011;11574;51.058;13.712;2023-06-10T23:44:16;8.93;;;6.73;;
22814;SDS011;11574;51.058;13.712;2023-06-10T23:49:19;11.23;;;6.73;;
22814;SDS011;11574;51.058;13.712;2023-06-10T23:54:23;9.57;;;6.43;;
22814;SDS011;11574;51.058;13.712;2023-06-10T23:59:27;11.77;;;8.13;;
